»·PEaware :: N832PL KBOI-KTWF

N832PL :: KBOI-KTWF

FLIGHT INFORMATION

Flight Status: Arrived
Operator: Privately registered:
United States
More flights under this callsign
Pilot: Anonymous 16594 (16594)
Aircraft: PIPER PA-28 CHEROKEE ARCHER
(PA28)
More flights by this aircraft type
Origin: KBOI Boise Air Terminal/Gowen
United States
Destination: KTWF Joslin Fld-Magic Valley Regl
United States
More flights between these airports :: More routes between these airports
Route: +
File this flight plan on PilotEdge
Remarks:
Altitude:
(Current/Filed)
7,500ft
Speed:
(Current/Filed)
0kts
Departed: 20-Jul-18 08:37 PM
Arrived: 20-Jul-18 09:28 PM
Distance/Time
Traveled:
100nm/0:51
Distance/Time
To Go:
Arrived

Flight Plot

Page will automatically refresh every two minutes.

Flight plan parsing failed; only flown route is shown


Map Options




Map Legend


Flown Route
Filed Route
Departure Airport
Arrival Airport
Navaid (VOR, NDB)
Fix

Horizontal Profiles

Position Reports

Time Latitude Longitude Heading Altitude Ground
Speed
20-Jul-18 20:29 43.570154 -116.229552 5 2837ft 0kts
20-Jul-18 20:30 43.570194 -116.229556 342 2837ft 0kts
20-Jul-18 20:31 43.570050 -116.229862 192 2837ft 0kts
20-Jul-18 20:32 43.570047 -116.229863 192 2837ft 0kts
20-Jul-18 20:33 43.569543 -116.230575 203 2837ft 4kts
20-Jul-18 20:34 43.571036 -116.235789 282 2837ft 10kts
20-Jul-18 20:35 43.570936 -116.236104 175 2837ft 0kts
20-Jul-18 20:36 43.570930 -116.236104 175 2837ft 0kts
20-Jul-18 20:37 43.569958 -116.236234 108 2837ft 0kts
20-Jul-18 20:38 43.562694 -116.214629 110 3129ft 85kts
20-Jul-18 20:39 43.547844 -116.189122 141 3773ft 88kts
20-Jul-18 20:40 43.528235 -116.167774 133 4361ft 90kts
20-Jul-18 20:41 43.510889 -116.142978 124 4911ft 90kts
20-Jul-18 20:42 43.499988 -116.112049 110 5528ft 91kts
20-Jul-18 20:43 43.493314 -116.077742 110 6126ft 94kts
20-Jul-18 20:44 43.477671 -116.048843 141 6787ft 99kts
20-Jul-18 20:45 43.453952 -116.026309 145 7454ft 114kts
20-Jul-18 20:46 43.425715 -115.999032 143 7538ft 128kts
20-Jul-18 20:47 43.399726 -115.964653 131 7260ft 130kts
20-Jul-18 20:48 43.376778 -115.929788 129 7419ft 117kts
20-Jul-18 20:49 43.356458 -115.892777 122 7421ft 123kts
20-Jul-18 20:50 43.336054 -115.857358 130 7591ft 119kts
20-Jul-18 20:51 43.313440 -115.820624 132 7571ft 131kts
20-Jul-18 20:52 43.287347 -115.785003 146 7276ft 133kts
20-Jul-18 20:53 43.256971 -115.760982 148 7275ft 117kts
20-Jul-18 20:54 43.231259 -115.735592 139 7496ft 113kts
20-Jul-18 20:55 43.208026 -115.704248 129 7680ft 126kts
20-Jul-18 20:56 43.184382 -115.665774 128 7554ft 126kts
20-Jul-18 20:57 43.162770 -115.628071 124 7419ft 126kts
20-Jul-18 20:58 43.144035 -115.589085 121 7458ft 119kts
20-Jul-18 20:59 43.124971 -115.550995 125 7683ft 121kts
20-Jul-18 21:00 43.102787 -115.516222 134 8023ft 122kts
20-Jul-18 21:01 43.081596 -115.482320 127 7706ft 116kts
20-Jul-18 21:02 43.063318 -115.442119 119 7511ft 131kts
20-Jul-18 21:03 43.044761 -115.401127 121 7467ft 120kts
20-Jul-18 21:04 43.026724 -115.362318 121 7491ft 122kts
20-Jul-18 21:05 43.010481 -115.321496 114 7494ft 123kts
20-Jul-18 21:06 42.992755 -115.280951 128 7484ft 125kts
20-Jul-18 21:07 42.971229 -115.243499 123 7539ft 126kts
20-Jul-18 21:08 42.951534 -115.203260 122 7487ft 125kts
20-Jul-18 21:09 42.932814 -115.163483 119 7588ft 130kts
20-Jul-18 21:10 42.907151 -115.125981 136 7509ft 138kts
20-Jul-18 21:11 42.879040 -115.090816 137 7450ft 133kts
20-Jul-18 21:12 42.852215 -115.056179 133 7468ft 127kts
20-Jul-18 21:13 42.830207 -115.017552 122 7584ft 130kts
20-Jul-18 21:14 42.807666 -114.976244 126 7498ft 136kts
20-Jul-18 21:15 42.782661 -114.938284 133 7402ft 130kts
20-Jul-18 21:16 42.758627 -114.903150 129 7451ft 132kts
20-Jul-18 21:17 42.735542 -114.863035 124 7380ft 135kts
20-Jul-18 21:18 42.711468 -114.824448 130 7276ft 132kts
20-Jul-18 21:19 42.686856 -114.788053 128 7085ft 128kts
20-Jul-18 21:20 42.664438 -114.751156 124 7418ft 127kts
20-Jul-18 21:21 42.645460 -114.710143 117 7310ft 129kts
20-Jul-18 21:22 42.627493 -114.667307 121 6926ft 132kts
20-Jul-18 21:23 42.605728 -114.627298 135 6413ft 133kts
20-Jul-18 21:24 42.576462 -114.596057 140 5663ft 130kts
20-Jul-18 21:25 42.552462 -114.562012 125 5347ft 119kts
20-Jul-18 21:26 42.534680 -114.526573 153 5094ft 112kts
20-Jul-18 21:27 42.508715 -114.519078 173 4810ft 80kts
20-Jul-18 21:28 42.486659 -114.516860 161 4409ft 68kts
20-Jul-18 21:29 42.481166 -114.496922 86 4123ft 37kts
20-Jul-18 21:30 42.482413 -114.493612 37 4123ft 5kts
20-Jul-18 21:31 42.482416 -114.489234 93 4123ft 19kts
20-Jul-18 21:32 42.482620 -114.483630 22 4123ft 10kts
20-Jul-18 21:33 42.483472 -114.482739 154 4123ft 2kts
20-Jul-18 21:34 42.483454 -114.482686 91 4123ft 0kts
20-Jul-18 21:35 42.483454 -114.482686 91 4123ft 0kts

Navigation Log

Ident Type
Flight plan parsing failed, navigation log unavailable